Flight Track Log - Related Links

Times and Time Zones

All times are in EDT time to prevent confusion due to time zone crossing. See the ASA692 flight status page for this flight to view local times or setup timezone preferences in your user account.

Time Position Orientation Groundspeed Altitude Reporting Facility
EDT Latitude Longitude Course Direction KTS MPH feet Rate Location/Type
Sat 04:00:48 PM 47.4247 -122.3128 177° South 171 197 1,500  Level Seattle Center
Sat 04:01:07 PM 47.4108 -122.3117 177° South 172 198 2,000 1,200 Climbing Seattle Center
Sat 04:02:08 PM 47.3550 -122.3106 179° South 201 231 3,100 1,033 Climbing Seattle Center
Sat 04:03:09 PM 47.2942 -122.2989 173° South 221 254 4,100 1,537 Climbing Seattle Center
Sat 04:04:09 PM 47.2264 -122.2683 163° South 254 292 6,200 2,430 Climbing Seattle Center
Sat 04:05:10 PM 47.1511 -122.2322 162° South 265 305 9,000 2,262 Climbing Seattle Center
Sat 04:06:11 PM 47.0772 -122.1986 163° South 278 320 10,800 1,967 Climbing Seattle Center
Sat 04:07:12 PM 46.9897 -122.1578 162° South 328 377 13,000 2,311 Climbing Seattle Center
Sat 04:08:13 PM 46.8986 -122.1153 162° South 344 396 15,500 2,430 Climbing Seattle Center
Sat 04:09:13 PM 46.8011 -122.0719 163° South 364 419 17,900 2,231 Climbing Seattle Center
Sat 04:10:14 PM 46.7297 -121.9858 140° Southeast 390 449 20,000 2,016 Climbing Seattle Center
Sat 04:11:15 PM 46.6728 -121.8492 121° Southeast 400 460 22,000 2,213 Climbing Seattle Center
Sat 04:12:16 PM 46.6003 -121.6808 122° Southeast 414 476 24,500 2,016 Climbing Seattle Center
Sat 04:13:17 PM 46.5383 -121.5300 121° Southeast 425 489 26,100 1,525 Climbing Seattle Center
Sat 04:14:18 PM 46.4725 -121.3781 122° Southeast 438 504 27,600 1,388 Climbing Seattle Center
Sat 04:15:18 PM 46.4058 -121.2211 122° Southeast 452 520 28,900 1,339 Climbing Seattle Center
Sat 04:16:19 PM 46.3378 -121.0628 122° Southeast 460 529 30,300 1,426 Climbing Seattle Center
Sat 04:17:20 PM 46.2678 -120.9022 122° Southeast 469 540 31,800 1,328 Climbing Seattle Center
Sat 04:18:21 PM 46.1983 -120.7436 122° Southeast 469 540 33,000 1,180 Climbing Seattle Center
Sat 04:19:22 PM 46.1300 -120.5889 122° Southeast 463 533 34,200 984 Climbing Seattle Center
Sat 04:20:23 PM 46.0600 -120.4314 123° Southeast 465 535 35,000 843 Climbing Seattle Center
Sat 04:21:23 PM 45.9894 -120.2731 123° Southeast 469 540 35,900 942 Climbing Seattle Center
Sat 04:22:24 PM 45.9192 -120.1150 123° Southeast 469 540 36,900 541 Climbing Seattle Center
Sat 04:23:25 PM 45.8489 -119.9594 123° Southeast 466 536 37,000 49 Climbing Seattle Center
Sat 04:24:26 PM 45.7772 -119.8014 123° Southeast 471 542 37,000  Level Seattle Center
Sat 04:25:27 PM 45.7056 -119.6453 123° Southeast 470 541 37,000  Level Seattle Center
Sat 04:26:28 PM 45.6344 -119.4900 123° Southeast 467 537 37,000  Level Seattle Center
Sat 04:27:28 PM 45.5639 -119.3344 123° Southeast 466 536 37,000  Level Seattle Center
Sat 04:28:29 PM 45.4908 -119.1792 124° Southeast 468 539 37,000  Level Seattle Center
Sat 04:29:30 PM 45.4183 -119.0214 123° Southeast 474 545 37,000  Level Seattle Center
Sat 04:30:31 PM 45.3292 -118.8333 124° Southeast 475 547 37,000  Level Seattle Center
Sat 04:31:32 PM 45.2558 -118.6772 124° Southeast 475 547 37,000  Level Seattle Center
Sat 04:32:33 PM 45.1839 -118.5231 123° Southeast 471 542 37,000  Level Seattle Center
Sat 04:33:34 PM 45.1089 -118.3678 124° Southeast 475 547 37,000  Level Seattle Center
Sat 04:34:38 PM 45.0350 -118.2133 124° Southeast 471 542 37,000  Level Salt Lake Center
Sat 04:35:39 PM 44.9533 -118.0461 125° Southeast 472 543 37,000  Level Salt Lake Center
Sat 04:36:40 PM 44.8828 -117.8997 124° Southeast 471 542 37,000  Level Salt Lake Center
Sat 04:37:41 PM 44.8094 -117.7553 126° Southeast 473 544 37,000  Level Salt Lake Center
Sat 04:38:42 PM 44.7150 -117.5942 129° Southeast 477 549 37,000  Level Salt Lake Center
Sat 04:39:44 PM 44.6339 -117.4558 129° Southeast 479 551 37,000  Level Salt Lake Center
Sat 04:40:45 PM 44.5400 -117.2936 129° Southeast 480 552 37,000  Level Salt Lake Center
Sat 04:41:46 PM 44.4586 -117.1542 129° Southeast 483 556 37,000  Level Salt Lake Center
Sat 04:42:47 PM 44.3764 -117.0172 130° Southeast 483 556 37,000  Level Salt Lake Center
Sat 04:43:49 PM 44.2817 -116.8550 129° Southeast 485 558 37,000  Level Salt Lake Center
Sat 04:44:50 PM 44.1989 -116.7178 130° Southeast 485 558 37,000  Level Salt Lake Center
Sat 04:45:51 PM 44.1019 -116.5564 130° Southeast 490 564 37,000  Level Salt Lake Center
Sat 04:46:53 PM 44.0206 -116.4203 130° Southeast 483 556 37,000  Level Salt Lake Center
Sat 04:47:54 PM 43.9247 -116.2611 130° Southeast 483 556 37,000  Level Salt Lake Center
Sat 04:48:56 PM 43.8436 -116.1258 130° Southeast 481 554 37,000  Level Salt Lake Center
Sat 04:49:57 PM 43.7606 -115.9906 130° Southeast 481 554 37,000  Level Salt Lake Center
Sat 04:50:58 PM 43.6647 -115.8331 130° Southeast 480 552 37,000  Level Salt Lake Center
Sat 04:52:00 PM 43.5814 -115.6981 130° Southeast 482 555 37,000  Level Salt Lake Center
Sat 04:53:01 PM 43.4856 -115.5417 130° Southeast 478 550 37,000  Level Salt Lake Center
Sat 04:54:02 PM 43.4025 -115.4089 131° Southeast 479 551 37,000  Level Salt Lake Center
Sat 04:55:04 PM 43.3192 -115.2775 131° Southeast 477 549 37,000  Level Salt Lake Center
Sat 04:56:05 PM 43.2233 -115.1225 130° Southeast 478 550 37,000  Level Salt Lake Center
Sat 04:57:07 PM 43.1397 -114.9919 131° Southeast 477 549 37,000  Level Salt Lake Center
Sat 04:58:08 PM 43.0428 -114.8392 131° Southeast 476 548 37,000  Level Salt Lake Center
Sat 04:59:09 PM 42.9600 -114.7097 131° Southeast 474 545 37,000  Level Salt Lake Center
Sat 05:00:11 PM 42.8675 -114.5650 131° Southeast 471 542 37,000  Level Salt Lake Center
Sat 05:01:12 PM 42.7892 -114.4439 131° Southeast 469 540 37,000  Level Salt Lake Center
Sat 05:02:13 PM 42.7033 -114.3117 131° Southeast 467 537 37,000  Level Salt Lake Center
Sat 05:03:15 PM 42.6167 -114.1794 132° Southeast 468 539 37,000  Level Salt Lake Center
Sat 05:04:16 PM 42.5142 -114.0203 131° Southeast 469 540 37,000  Level Salt Lake Center
Sat 05:05:17 PM 42.4278 -113.8883 132° Southeast 469 540 37,000  Level Salt Lake Center
Sat 05:06:19 PM 42.3364 -113.7606 134° Southeast 473 544 37,000  Level Salt Lake Center
Sat 05:07:20 PM 42.2483 -113.6294 132° Southeast 474 545 37,000  Level Salt Lake Center
Sat 05:08:22 PM 42.1600 -113.5000 133° Southeast 470 541 37,000  Level Salt Lake Center
Sat 05:09:23 PM 42.0731 -113.3747 133° Southeast 461 531 37,000  Level Salt Lake Center
Sat 05:10:24 PM 41.9864 -113.2506 133° Southeast 457 526 37,000  Level Salt Lake Center
Sat 05:11:26 PM 41.9008 -113.1253 133° Southeast 456 525 37,000  Level Salt Lake Center
Sat 05:12:27 PM 41.7961 -112.9772 133° Southeast 457 526 37,000  Level Salt Lake Center
Sat 05:13:29 PM 41.7092 -112.8528 133° Southeast 459 528 37,000  Level Salt Lake Center
Sat 05:14:30 PM 41.6217 -112.7286 133° Southeast 461 531 37,000  Level Salt Lake Center
Sat 05:15:32 PM 41.5331 -112.6053 134° Southeast 460 529 37,000  Level Salt Lake Center
Sat 05:16:33 PM 41.4439 -112.4803 134° Southeast 464 534 37,000  Level Salt Lake Center
Sat 05:17:34 PM 41.3544 -112.3542 133° Southeast 469 540 37,000  Level Salt Lake Center
Sat 05:18:36 PM 41.2650 -112.2300 134° Southeast 467 537 37,000  Level Salt Lake Center
Sat 05:19:37 PM 41.1758 -112.1053 134° Southeast 467 537 37,000  Level Salt Lake Center
Sat 05:20:39 PM 41.0694 -111.9586 134° Southeast 463 533 37,000  Level Salt Lake Center
Sat 05:21:40 PM 40.9808 -111.8353 134° Southeast 463 533 37,000  Level Salt Lake Center
Sat 05:22:42 PM 40.8981 -111.7222 134° Southeast 465 535 37,000  Level Salt Lake Center
Sat 05:23:44 PM 40.8092 -111.6011 134° Southeast 461 531 37,000  Level Salt Lake Center
Sat 05:24:45 PM 40.7200 -111.4800 134° Southeast 461 531 37,000  Level Salt Lake Center
Sat 05:25:46 PM 40.6133 -111.3344 134° Southeast 461 531 37,000  Level Salt Lake Center
Sat 05:26:48 PM 40.5236 -111.2153 135° Southeast 458 527 37,000  Level Salt Lake Center
Sat 05:27:49 PM 40.4331 -111.0931 134° Southeast 466 536 37,000  Level Salt Lake Center
Sat 05:28:51 PM 40.3414 -110.9711 135° Southeast 470 541 37,000  Level Salt Lake Center
Sat 05:29:52 PM 40.2414 -110.8372 134° Southeast 468 539 37,000  Level Salt Lake Center
Sat 05:30:54 PM 40.1544 -110.7233 135° Southeast 465 535 37,000  Level Salt Lake Center
Sat 05:31:55 PM 40.0678 -110.6081 134° Southeast 465 535 37,000  Level Salt Lake Center
Sat 05:32:57 PM 39.9658 -110.4753 135° Southeast 464 534 37,000  Level Salt Lake Center
Sat 05:33:58 PM 39.8789 -110.3622 135° Southeast 463 533 37,000  Level Salt Lake Center
Sat 05:35:00 PM 39.7772 -110.2294 135° Southeast 464 534 37,000  Level Salt Lake Center
Sat 05:36:01 PM 39.6894 -110.1158 135° Southeast 465 535 37,000  Level Salt Lake Center
Sat 05:36:59 PM 39.6014 -110.0011 135° Southeast 464 534 37,000  Level Denver Center
Sat 05:38:01 PM 39.4997 -109.8692 135° Southeast 464 534 37,000  Level Denver Center
Sat 05:39:02 PM 39.4131 -109.7583 135° Southeast 461 531 37,000  Level Denver Center
Sat 05:40:04 PM 39.3117 -109.6278 135° Southeast 461 531 37,000  Level Denver Center
Sat 05:41:06 PM 39.2233 -109.5158 136° Southeast 467 537 37,000  Level Denver Center
Sat 05:42:07 PM 39.1367 -109.4058 135° Southeast 459 528 37,000  Level Denver Center
Sat 05:43:09 PM 39.0342 -109.2769 136° Southeast 462 532 37,000  Level Denver Center
Sat 05:44:10 PM 38.9478 -109.1675 135° Southeast 458 527 37,000  Level Denver Center
Sat 05:45:12 PM 38.8458 -109.0394 136° Southeast 460 529 37,000  Level Denver Center
Sat 05:46:13 PM 38.7583 -108.9308 136° Southeast 458 527 37,000  Level Denver Center
Sat 05:47:15 PM 38.6553 -108.8025 136° Southeast 463 533 37,000  Level Denver Center
Sat 05:48:17 PM 38.5675 -108.6942 136° Southeast 461 531 37,000  Level Denver Center
Sat 05:49:18 PM 38.4792 -108.5856 136° Southeast 461 531 37,000  Level Denver Center
Sat 05:50:20 PM 38.3758 -108.4597 136° Southeast 460 529 37,000  Level Denver Center
Sat 05:51:21 PM 38.2889 -108.3506 135° Southeast 460 529 37,000  Level Denver Center
Sat 05:52:23 PM 38.1858 -108.2250 136° Southeast 459 528 37,000  Level Denver Center
Sat 05:53:25 PM 38.0981 -108.1200 137° Southeast 455 524 37,000  Level Denver Center
Sat 05:54:26 PM 38.0081 -108.0092 136° Southeast 456 525 37,000  Level Denver Center
Sat 05:55:28 PM 37.9083 -107.8817 135° Southeast 455 524 37,000  Level Denver Center
Sat 05:56:29 PM 37.8244 -107.7744 135° Southeast 450 518 37,000  Level Denver Center
Sat 05:57:43 PM 37.7244 -107.6489 135° Southeast 452 520 37,000  Level Denver Center
Sat 05:58:45 PM 37.6256 -107.5244 135° Southeast 449 517 37,000  Level Denver Center
Sat 05:59:46 PM 37.5283 -107.4036 135° Southeast 441 507 37,000  Level Denver Center
Sat 06:00:48 PM 37.4442 -107.2978 135° Southeast 444 511 37,000  Level Denver Center
Sat 06:02:02 PM 37.3314 -107.1556 135° Southeast 449 517 37,000  Level Denver Center
Sat 06:03:03 PM 37.2467 -107.0497 135° Southeast 449 517 37,000  Level Denver Center
Sat 06:04:05 PM 37.1475 -106.9275 135° Southeast 447 514 37,000  Level Denver Center
Sat 06:05:06 PM 37.0619 -106.8228 136° Southeast 447 514 37,000  Level Denver Center
Sat 06:06:08 PM 36.9758 -106.7167 135° Southeast 452 520 37,000  Level Denver Center
Sat 06:07:10 PM 36.8756 -106.5931 135° Southeast 452 520 37,000  Level Denver Center
Sat 06:08:11 PM 36.7897 -106.4878 135° Southeast 452 520 37,000  Level Denver Center
Sat 06:09:13 PM 36.6878 -106.3650 136° Southeast 457 526 37,000  Level Denver Center
Sat 06:10:14 PM 36.5978 -106.2550 136° Southeast 454 522 37,000  Level Denver Center
Sat 06:11:16 PM 36.5081 -106.1464 136° Southeast 450 518 37,000  Level Denver Center
Sat 06:12:17 PM 36.4186 -106.0378 136° Southeast 449 517 37,000  Level Denver Center
Sat 06:13:22 PM 36.3289 -105.9314 136° Southeast 448 516 37,000  Level Albuquerque Center
Sat 06:14:24 PM 36.2386 -105.8233 136° Southeast 450 518 37,000  Level Albuquerque Center
Sat 06:15:25 PM 36.1497 -105.7167 136° Southeast 447 514 37,000  Level Albuquerque Center
Sat 06:16:27 PM 36.0422 -105.5886 136° Southeast 445 512 37,000  Level Albuquerque Center
Sat 06:17:28 PM 35.9608 -105.4925 136° Southeast 443 510 37,000  Level Albuquerque Center
Sat 06:18:29 PM 35.8711 -105.3869 136° Southeast 442 509 37,000  Level Albuquerque Center
Sat 06:19:31 PM 35.7672 -105.2631 136° Southeast 443 510 37,000  Level Albuquerque Center
Sat 06:20:32 PM 35.6761 -105.1597 137° Southeast 442 509 37,000  Level Albuquerque Center
Sat 06:21:34 PM 35.5856 -105.0556 137° Southeast 443 510 37,000  Level Albuquerque Center
Sat 06:22:35 PM 35.4936 -104.9517 137° Southeast 445 512 37,000  Level Albuquerque Center
Sat 06:23:36 PM 35.4019 -104.8464 137° Southeast 447 514 37,000  Level Albuquerque Center
Sat 06:24:38 PM 35.3092 -104.7417 137° Southeast 450 518 37,000  Level Albuquerque Center
Sat 06:25:39 PM 35.2181 -104.6389 137° Southeast 446 513 37,000  Level Albuquerque Center
Sat 06:27:00 PM 35.0964 -104.5054 138° Southeast  Level FlightAware Approximate
Sat 06:27:42 PM 35.0367 -104.4358 138° Southeast 445 512 37,000  Level Albuquerque Center
Sat 06:28:43 PM 34.9319 -104.3192 138° Southeast 440 506 37,000  Level Albuquerque Center
Sat 06:29:44 PM 34.8425 -104.2197 138° Southeast 436 502 37,000  Level Albuquerque Center
Sat 06:30:46 PM 34.7531 -104.1203 138° Southeast 434 499 37,000  Level Albuquerque Center
Sat 06:31:47 PM 34.6633 -104.0206 138° Southeast 434 499 37,000  Level Albuquerque Center
Sat 06:32:48 PM 34.5736 -103.9222 138° Southeast 433 498 37,000  Level Albuquerque Center
Sat 06:33:50 PM 34.4833 -103.8219 138° Southeast 435 501 37,000  Level Albuquerque Center
Sat 06:34:51 PM 34.3936 -103.7219 137° Southeast 435 501 37,000  Level Albuquerque Center
Sat 06:35:52 PM 34.3022 -103.6239 138° Southeast 434 499 37,000  Level Albuquerque Center
Sat 06:36:54 PM 34.2044 -103.5194 139° Southeast 439 505 37,000  Level Albuquerque Center
Sat 06:37:55 PM 34.1067 -103.4322 144° Southeast 439 505 37,000 98 Level Albuquerque Center
Sat 06:38:56 PM 34.0011 -103.3586 150° Southeast 438 504 37,200 390 Climbing Albuquerque Center
Sat 06:39:58 PM 33.8964 -103.2800 148° Southeast 441 507 37,800 732 Climbing Albuquerque Center
Sat 06:40:59 PM 33.7928 -103.1978 147° Southeast 446 513 38,700 590 Climbing Albuquerque Center
Sat 06:42:00 PM 33.6889 -103.1144 146° Southeast 448 516 39,000 146 Climbing Albuquerque Center
Sat 06:43:02 PM 33.5869 -103.0306 146° Southeast 446 513 39,000  Level Albuquerque Center
Sat 06:44:03 PM 33.4844 -102.9464 146° Southeast 446 513 39,000  Level Albuquerque Center
Sat 06:44:49 PM 33.4033 -102.8700 142° Southeast 446 513 39,000  Level Fort Worth Center
Sat 06:45:49 PM 33.3117 -102.7672 137° Southeast 451 519 39,000  Level Fort Worth Center
Sat 06:46:49 PM 33.2203 -102.6625 136° Southeast 451 519 39,000  Level Fort Worth Center
Sat 06:47:49 PM 33.1144 -102.5472 138° Southeast 462 532 39,000  Level Fort Worth Center
Sat 06:48:49 PM 33.0306 -102.4481 135° Southeast 462 532 39,000  Level Fort Worth Center
Sat 06:49:49 PM 32.9389 -102.3439 136° Southeast 457 526 39,000  Level Fort Worth Center
Sat 06:50:49 PM 32.8508 -102.2425 136° Southeast 450 518 39,000  Level Fort Worth Center
Sat 06:51:49 PM 32.7586 -102.1439 138° Southeast 450 518 39,000 -500 Level Fort Worth Center
Sat 06:52:49 PM 32.6686 -102.0428 137° Southeast 455 524 38,000 -950 Descending Fort Worth Center
Sat 06:53:49 PM 32.5764 -101.9394 137° Southeast 455 524 37,100 -950 Descending Fort Worth Center
Sat 06:54:49 PM 32.4839 -101.8414 138° Southeast 450 518 36,100 -950 Descending Fort Worth Center
Sat 06:55:49 PM 32.3894 -101.7358 137° Southeast 456 525 35,200 -950 Descending Fort Worth Center
Sat 06:56:49 PM 32.2947 -101.6331 137° Southeast 456 525 34,200 -600 Descending Fort Worth Center
Sat 06:57:49 PM 32.2003 -101.5281 137° Southeast 456 525 34,000 -100 Descending Fort Worth Center
Sat 06:58:49 PM 32.1017 -101.4131 135° Southeast 453 521 34,000  Level Fort Worth Center
Sat 06:59:49 PM 32.0028 -101.3058 137° Southeast 460 529 34,000  Level Fort Worth Center
Sat 07:00:49 PM 31.9097 -101.2064 138° Southeast 460 529 34,000  Level Fort Worth Center
Sat 07:01:49 PM 31.8189 -101.1050 137° Southeast 460 529 34,000  Level Fort Worth Center
Sat 07:03:40 PM 31.6414 -100.9208 139° Southeast 463 533 34,000  Level Houston Center
Sat 07:04:41 PM 31.5461 -100.8214 138° Southeast 460 529 34,000  Level Houston Center
Sat 07:05:42 PM 31.4556 -100.7219 137° Southeast 452 520 34,000 -244 Level Houston Center
Sat 07:06:44 PM 31.3661 -100.6253 137° Southeast 443 510 33,500 -1,463 Descending Houston Center
Sat 07:07:45 PM 31.2806 -100.5353 138° Southeast 421 484 31,000 -1,220 Descending Houston Center
Sat 07:08:47 PM 31.1958 -100.4461 138° Southeast 414 476 31,000  Level Houston Center
Sat 07:09:48 PM 31.1117 -100.3558 137° Southeast 410 472 31,000  Level Houston Center
Sat 07:10:49 PM 31.0264 -100.2653 138° Southeast 412 474 31,000  Level Houston Center
Sat 07:11:51 PM 30.9414 -100.1769 138° Southeast 410 472 31,000  Level Houston Center
Sat 07:12:52 PM 30.8403 -100.0706 138° Southeast 408 470 31,000 -344 Level Houston Center
Sat 07:13:53 PM 30.7550 -99.9808 138° Southeast 411 473 30,300 -878 Descending Houston Center
Sat 07:14:55 PM 30.6711 -99.8939 138° Southeast 405 466 29,200 -1,024 Descending Houston Center
Sat 07:15:56 PM 30.5883 -99.8072 138° Southeast 401 461 28,200 -1,230 Descending Houston Center
Sat 07:16:57 PM 30.5008 -99.7300 143° Southeast 396 456 26,700 -1,659 Descending Houston Center
Sat 07:17:59 PM 30.4167 -99.6544 142° Southeast 385 443 24,800 -1,805 Descending Houston Center
Sat 07:19:00 PM 30.3347 -99.5803 142° Southeast 376 433 23,000 -1,756 Descending Houston Center
Sat 07:20:02 PM 30.2539 -99.5092 143° Southeast 367 422 21,200 -1,756 Descending Houston Center
Sat 07:21:03 PM 30.1750 -99.4381 142° Southeast 358 412 19,400 -1,721 Descending Houston Center
Sat 07:22:04 PM 30.0967 -99.3689 143° Southeast 354 407 17,700 -1,800 Descending Houston Center
Sat 07:22:33 PM 30.0506 -99.3292 143° Southeast 352 405 16,700 -1,742 Descending Houston Center
Sat 07:23:06 PM 30.0192 -99.3000 141° Southeast 353 406 15,900 -1,791 Descending Houston Center
Sat 07:23:40 PM 29.9622 -99.2522 144° Southeast 351 404 14,700 -2,066 Descending Houston Center
Sat 07:24:07 PM 29.9269 -99.2175 140° Southeast 348 400 13,800 -1,791 Descending Houston Center
Sat 07:24:47 PM 29.8992 -99.1533 117° Southeast 345 397 12,700 -1,770 Descending Houston Center
Sat 07:25:08 PM 29.8875 -99.1175 111° Southeast 344 396 12,000 -1,800 Descending Houston Center
Sat 07:25:47 PM 29.8611 -99.0542 116° Southeast 336 387 10,900 -1,645 Descending Houston Center
Sat 07:26:10 PM 29.8478 -99.0153 112° Southeast 330 380 10,300 -1,091 Descending Houston Center
Sat 07:26:42 PM 29.8167 -98.9775 134° Southeast 310 357 9,900 -984 Descending Houston Center
Sat 07:27:11 PM 29.7906 -98.9450 133° Southeast 297 342 9,300 -1,200 Descending Houston Center
Sat 07:27:42 PM 29.7583 -98.9119 138° Southeast 283 326 8,700 -1,279 Descending Houston Center
Sat 07:28:12 PM 29.7328 -98.8819 134° Southeast 287 330 8,000 -1,377 Descending Houston Center
Sat 07:28:43 PM 29.7006 -98.8514 141° Southeast 282 325 7,300 -1,258 Descending Houston Center
Sat 07:29:14 PM 29.6750 -98.8228 136° Southeast 278 320 6,700 -1,164 Descending Houston Center
Sat 07:29:50 PM 29.6383 -98.7889 141° Southeast 274 315 6,000 -689 Descending Houston Center
Sat 07:30:15 PM 29.6142 -98.7622 136° Southeast 270 311 6,000  Level Houston Center
Sat 07:30:50 PM 29.5828 -98.7331 141° Southeast 243 280 6,000  Level Houston Center
Sat 07:31:16 PM 29.5639 -98.7128 137° Southeast 242 278 6,000 -269 Level Houston Center
Sat 07:31:57 PM 29.5303 -98.6839 143° Southeast 222 255 5,700 -677 Descending Houston Center
Sat 07:32:18 PM 29.5169 -98.6681 134° Southeast 224 258 5,300 -1,180 Descending Houston Center
Sat 07:32:58 PM 29.4864 -98.6411 142° Southeast 202 232 4,500 -1,180 Descending Houston Center
Sat 07:33:19 PM 29.4694 -98.6247 140° Southeast 206 237 4,100 -1,111 Descending Houston Center
Sat 07:33:52 PM 29.4453 -98.6053 145° Southeast 201 231 3,500 -1,082 Descending Houston Center
Sat 07:34:20 PM 29.4272 -98.5847 135° Southeast 199 229 3,000 -492 Descending Houston Center
Sat 07:34:53 PM 29.4328 -98.5586 76° East 181 208 3,000 -197 Level Houston Center
Sat 07:35:21 PM 29.4494 -98.5425 40° Northeast 165 190 2,800 -600 Descending Houston Center
Sat 07:35:53 PM 29.4636 -98.5286 40° Northeast 138 159 2,400 -774 Descending Houston Center
Sat 07:36:23 PM 29.4817 -98.5111 40° Northeast 143 165 2,000 -787 Descending Houston Center
Sat 07:36:54 PM 29.4944 -98.4986 40° Northeast 136 157 1,600 -787 Descending Houston Center
Sat 07:37:24 PM 29.5111 -98.4822 41° Northeast 140 161 1,200 -527 Descending Houston Center
Sat 07:38:25 PM 29.5431 -98.4525 39° Northeast 140 161 800 -393 Descending Houston Center

Login

Don't have an account? Register now (free) for customized features, flight alerts, and more!